sensor_id;sensor_type;location;lat;lon;timestamp;temperature;humidity
68011;DHT22;54794;48.348;7.878;2022-11-15T00:01:14;13.30;70.60
68011;DHT22;54794;48.348;7.878;2022-11-15T00:03:43;13.30;70.60
68011;DHT22;54794;48.348;7.878;2022-11-15T00:06:11;13.30;70.60
68011;DHT22;54794;48.348;7.878;2022-11-15T00:08:38;13.40;70.70
68011;DHT22;54794;48.348;7.878;2022-11-15T00:11:05;13.30;70.50
68011;DHT22;54794;48.348;7.878;2022-11-15T00:13:31;13.30;70.60
68011;DHT22;54794;48.348;7.878;2022-11-15T00:16:00;13.40;70.70
68011;DHT22;54794;48.348;7.878;2022-11-15T00:18:28;13.40;70.70
68011;DHT22;54794;48.348;7.878;2022-11-15T00:21:02;13.40;70.80
68011;DHT22;54794;48.348;7.878;2022-11-15T00:23:30;13.40;70.80
68011;DHT22;54794;48.348;7.878;2022-11-15T00:25:58;13.40;70.80
68011;DHT22;54794;48.348;7.878;2022-11-15T00:28:25;13.50;70.90
68011;DHT22;54794;48.348;7.878;2022-11-15T00:30:52;13.50;70.90
68011;DHT22;54794;48.348;7.878;2022-11-15T00:33:20;13.50;70.80
68011;DHT22;54794;48.348;7.878;2022-11-15T00:35:46;13.50;70.80
68011;DHT22;54794;48.348;7.878;2022-11-15T00:38:13;13.50;70.80
68011;DHT22;54794;48.348;7.878;2022-11-15T00:40:41;13.60;70.90
68011;DHT22;54794;48.348;7.878;2022-11-15T00:43:08;13.60;70.90
68011;DHT22;54794;48.348;7.878;2022-11-15T00:45:34;13.60;70.90
68011;DHT22;54794;48.348;7.878;2022-11-15T00:48:01;13.60;70.90
68011;DHT22;54794;48.348;7.878;2022-11-15T00:50:28;13.70;70.90
68011;DHT22;54794;48.348;7.878;2022-11-15T00:52:55;13.70;70.90
68011;DHT22;54794;48.348;7.878;2022-11-15T00:55:22;13.70;70.80
68011;DHT22;54794;48.348;7.878;2022-11-15T00:57:49;13.70;70.80
68011;DHT22;54794;48.348;7.878;2022-11-15T01:00:16;13.80;71.40
68011;DHT22;54794;48.348;7.878;2022-11-15T01:02:43;13.80;70.70
68011;DHT22;54794;48.348;7.878;2022-11-15T01:05:10;13.80;70.70
68011;DHT22;54794;48.348;7.878;2022-11-15T01:07:36;13.80;70.70
68011;DHT22;54794;48.348;7.878;2022-11-15T01:10:04;13.80;70.60
68011;DHT22;54794;48.348;7.878;2022-11-15T01:12:32;13.80;70.60
68011;DHT22;54794;48.348;7.878;2022-11-15T01:14:58;13.80;70.60
68011;DHT22;54794;48.348;7.878;2022-11-15T01:17:25;13.80;70.60
68011;DHT22;54794;48.348;7.878;2022-11-15T01:19:53;13.80;70.60
68011;DHT22;54794;48.348;7.878;2022-11-15T01:22:20;13.80;70.60
68011;DHT22;54794;48.348;7.878;2022-11-15T01:24:46;13.80;70.60
68011;DHT22;54794;48.348;7.878;2022-11-15T01:27:13;13.80;70.60
68011;DHT22;54794;48.348;7.878;2022-11-15T01:29:40;13.90;70.60
68011;DHT22;54794;48.348;7.878;2022-11-15T01:32:07;13.90;71.10
68011;DHT22;54794;48.348;7.878;2022-11-15T01:34:34;13.90;70.70
68011;DHT22;54794;48.348;7.878;2022-11-15T01:37:01;13.90;70.60
68011;DHT22;54794;48.348;7.878;2022-11-15T01:39:28;13.90;70.70
68011;DHT22;54794;48.348;7.878;2022-11-15T01:41:55;13.90;71.20
68011;DHT22;54794;48.348;7.878;2022-11-15T01:47:16;13.90;70.80
68011;DHT22;54794;48.348;7.878;2022-11-15T01:49:57;13.90;70.70
68011;DHT22;54794;48.348;7.878;2022-11-15T01:52:29;13.90;70.70
68011;DHT22;54794;48.348;7.878;2022-11-15T01:55:09;13.90;70.70
68011;DHT22;54794;48.348;7.878;2022-11-15T01:57:41;13.90;70.70
68011;DHT22;54794;48.348;7.878;2022-11-15T02:00:10;13.90;70.70
68011;DHT22;54794;48.348;7.878;2022-11-15T02:02:38;13.90;70.70
68011;DHT22;54794;48.348;7.878;2022-11-15T02:05:05;13.90;70.80
68011;DHT22;54794;48.348;7.878;2022-11-15T02:07:35;13.90;70.80
68011;DHT22;54794;48.348;7.878;2022-11-15T02:10:10;13.90;70.80
68011;DHT22;54794;48.348;7.878;2022-11-15T02:12:40;13.80;70.80
68011;DHT22;54794;48.348;7.878;2022-11-15T02:15:08;13.80;70.80
68011;DHT22;54794;48.348;7.878;2022-11-15T02:17:48;13.80;70.80
68011;DHT22;54794;48.348;7.878;2022-11-15T02:43:29;13.80;71.00
68011;DHT22;54794;48.348;7.878;2022-11-15T02:46:41;13.80;71.10
68011;DHT22;54794;48.348;7.878;2022-11-15T02:49:33;13.80;71.10
68011;DHT22;54794;48.348;7.878;2022-11-15T02:52:01;13.80;71.00
68011;DHT22;54794;48.348;7.878;2022-11-15T02:54:31;13.80;71.10
68011;DHT22;54794;48.348;7.878;2022-11-15T02:57:06;13.80;71.10
68011;DHT22;54794;48.348;7.878;2022-11-15T03:08:32;13.90;71.30
68011;DHT22;54794;48.348;7.878;2022-11-15T03:11:15;13.80;71.20
68011;DHT22;54794;48.348;7.878;2022-11-15T03:16:58;13.90;71.30
68011;DHT22;54794;48.348;7.878;2022-11-15T03:22:17;13.90;71.80
68011;DHT22;54794;48.348;7.878;2022-11-15T03:24:51;13.90;71.30
68011;DHT22;54794;48.348;7.878;2022-11-15T03:27:25;13.90;71.20
68011;DHT22;54794;48.348;7.878;2022-11-15T03:30:00;13.90;71.20
68011;DHT22;54794;48.348;7.878;2022-11-15T03:32:33;13.90;71.20
68011;DHT22;54794;48.348;7.878;2022-11-15T03:35:06;13.90;71.20
68011;DHT22;54794;48.348;7.878;2022-11-15T03:37:44;13.90;71.20
68011;DHT22;54794;48.348;7.878;2022-11-15T03:40:17;13.90;71.20
68011;DHT22;54794;48.348;7.878;2022-11-15T03:46:26;14.00;71.30
68011;DHT22;54794;48.348;7.878;2022-11-15T03:49:22;14.00;71.30
68011;DHT22;54794;48.348;7.878;2022-11-15T03:51:56;14.00;71.30
68011;DHT22;54794;48.348;7.878;2022-11-15T03:54:25;14.00;71.20
68011;DHT22;54794;48.348;7.878;2022-11-15T03:56:52;14.00;71.20
68011;DHT22;54794;48.348;7.878;2022-11-15T03:59:19;13.90;71.20
68011;DHT22;54794;48.348;7.878;2022-11-15T04:01:46;14.00;71.20
68011;DHT22;54794;48.348;7.878;2022-11-15T04:04:13;14.00;71.30
68011;DHT22;54794;48.348;7.878;2022-11-15T04:06:40;14.00;71.30
68011;DHT22;54794;48.348;7.878;2022-11-15T04:09:07;14.00;71.30
68011;DHT22;54794;48.348;7.878;2022-11-15T04:11:34;14.00;71.30
68011;DHT22;54794;48.348;7.878;2022-11-15T04:14:00;14.00;71.30
68011;DHT22;54794;48.348;7.878;2022-11-15T04:16:27;14.00;71.20
68011;DHT22;54794;48.348;7.878;2022-11-15T04:18:54;14.00;71.20
68011;DHT22;54794;48.348;7.878;2022-11-15T04:21:47;14.10;71.20
68011;DHT22;54794;48.348;7.878;2022-11-15T04:24:33;14.10;71.20
68011;DHT22;54794;48.348;7.878;2022-11-15T04:27:00;14.10;71.20
68011;DHT22;54794;48.348;7.878;2022-11-15T04:29:27;14.10;71.20
68011;DHT22;54794;48.348;7.878;2022-11-15T04:32:04;14.10;71.20
68011;DHT22;54794;48.348;7.878;2022-11-15T04:34:33;14.10;71.20
68011;DHT22;54794;48.348;7.878;2022-11-15T04:37:00;14.10;71.20
68011;DHT22;54794;48.348;7.878;2022-11-15T04:39:40;14.20;71.20
68011;DHT22;54794;48.348;7.878;2022-11-15T04:42:08;14.20;71.70
68011;DHT22;54794;48.348;7.878;2022-11-15T04:44:35;14.20;71.20
68011;DHT22;54794;48.348;7.878;2022-11-15T04:47:02;14.20;71.20
68011;DHT22;54794;48.348;7.878;2022-11-15T04:49:30;14.20;71.20
68011;DHT22;54794;48.348;7.878;2022-11-15T04:51:57;14.20;71.10
68011;DHT22;54794;48.348;7.878;2022-11-15T04:54:23;14.20;71.10
68011;DHT22;54794;48.348;7.878;2022-11-15T04:56:50;14.20;71.10
68011;DHT22;54794;48.348;7.878;2022-11-15T04:59:17;14.30;71.10
68011;DHT22;54794;48.348;7.878;2022-11-15T05:01:44;14.30;71.10
68011;DHT22;54794;48.348;7.878;2022-11-15T05:04:11;14.30;71.10
68011;DHT22;54794;48.348;7.878;2022-11-15T05:06:49;14.30;71.10
68011;DHT22;54794;48.348;7.878;2022-11-15T05:09:18;14.30;71.10
68011;DHT22;54794;48.348;7.878;2022-11-15T05:11:46;14.30;71.10
68011;DHT22;54794;48.348;7.878;2022-11-15T05:14:13;14.30;71.10
68011;DHT22;54794;48.348;7.878;2022-11-15T05:16:41;14.30;71.10
68011;DHT22;54794;48.348;7.878;2022-11-15T05:19:08;14.30;71.10
68011;DHT22;54794;48.348;7.878;2022-11-15T05:21:36;14.40;71.00
68011;DHT22;54794;48.348;7.878;2022-11-15T05:24:03;14.30;71.00
68011;DHT22;54794;48.348;7.878;2022-11-15T05:26:30;14.30;71.00
68011;DHT22;54794;48.348;7.878;2022-11-15T05:28:58;14.30;71.00
68011;DHT22;54794;48.348;7.878;2022-11-15T05:31:26;14.30;71.10
68011;DHT22;54794;48.348;7.878;2022-11-15T05:33:55;14.30;71.10
68011;DHT22;54794;48.348;7.878;2022-11-15T05:36:37;14.30;71.10
68011;DHT22;54794;48.348;7.878;2022-11-15T05:39:07;14.30;71.20
68011;DHT22;54794;48.348;7.878;2022-11-15T05:41:46;14.30;71.20
68011;DHT22;54794;48.348;7.878;2022-11-15T05:44:20;14.30;71.20
68011;DHT22;54794;48.348;7.878;2022-11-15T05:46:51;14.30;71.20
68011;DHT22;54794;48.348;7.878;2022-11-15T05:49:24;14.30;71.20
68011;DHT22;54794;48.348;7.878;2022-11-15T05:51:55;14.30;71.20
68011;DHT22;54794;48.348;7.878;2022-11-15T05:54:24;14.30;71.20
68011;DHT22;54794;48.348;7.878;2022-11-15T05:56:52;14.30;71.20
68011;DHT22;54794;48.348;7.878;2022-11-15T05:59:20;14.30;71.20
68011;DHT22;54794;48.348;7.878;2022-11-15T06:01:48;14.30;71.20
68011;DHT22;54794;48.348;7.878;2022-11-15T06:04:15;14.30;71.20
68011;DHT22;54794;48.348;7.878;2022-11-15T06:06:42;14.30;71.20
68011;DHT22;54794;48.348;7.878;2022-11-15T06:09:09;14.30;71.20
68011;DHT22;54794;48.348;7.878;2022-11-15T06:11:36;14.30;71.20
68011;DHT22;54794;48.348;7.878;2022-11-15T06:14:03;14.30;71.20
68011;DHT22;54794;48.348;7.878;2022-11-15T06:16:30;14.30;71.20
68011;DHT22;54794;48.348;7.878;2022-11-15T06:18:57;14.30;71.10
68011;DHT22;54794;48.348;7.878;2022-11-15T06:21:23;14.30;71.10
68011;DHT22;54794;48.348;7.878;2022-11-15T06:23:50;14.30;71.10
68011;DHT22;54794;48.348;7.878;2022-11-15T06:26:17;14.30;71.10
68011;DHT22;54794;48.348;7.878;2022-11-15T06:28:44;14.30;71.10
68011;DHT22;54794;48.348;7.878;2022-11-15T06:31:11;14.30;71.10
68011;DHT22;54794;48.348;7.878;2022-11-15T06:33:39;14.30;71.10
68011;DHT22;54794;48.348;7.878;2022-11-15T06:36:09;14.30;71.10
68011;DHT22;54794;48.348;7.878;2022-11-15T06:38:46;14.30;71.00
68011;DHT22;54794;48.348;7.878;2022-11-15T06:41:14;14.30;71.10
68011;DHT22;54794;48.348;7.878;2022-11-15T06:43:41;14.30;71.10
68011;DHT22;54794;48.348;7.878;2022-11-15T06:46:08;14.30;71.10
68011;DHT22;54794;48.348;7.878;2022-11-15T06:48:39;14.30;71.20
68011;DHT22;54794;48.348;7.878;2022-11-15T06:51:06;14.30;71.10
68011;DHT22;54794;48.348;7.878;2022-11-15T06:53:34;14.30;71.20
68011;DHT22;54794;48.348;7.878;2022-11-15T06:56:02;14.30;71.20
68011;DHT22;54794;48.348;7.878;2022-11-15T06:58:30;14.30;71.20
68011;DHT22;54794;48.348;7.878;2022-11-15T07:01:09;14.30;71.10
68011;DHT22;54794;48.348;7.878;2022-11-15T07:03:39;14.30;71.00
68011;DHT22;54794;48.348;7.878;2022-11-15T07:06:09;14.30;71.00
68011;DHT22;54794;48.348;7.878;2022-11-15T07:08:37;14.30;71.10
68011;DHT22;54794;48.348;7.878;2022-11-15T07:11:06;14.30;71.20
68011;DHT22;54794;48.348;7.878;2022-11-15T07:13:35;14.30;71.10
68011;DHT22;54794;48.348;7.878;2022-11-15T07:16:05;14.30;71.20
68011;DHT22;54794;48.348;7.878;2022-11-15T07:18:38;14.30;71.20
68011;DHT22;54794;48.348;7.878;2022-11-15T07:21:08;14.30;71.30
68011;DHT22;54794;48.348;7.878;2022-11-15T07:23:38;14.30;71.30
68011;DHT22;54794;48.348;7.878;2022-11-15T07:26:06;14.30;71.30
68011;DHT22;54794;48.348;7.878;2022-11-15T07:28:35;14.30;71.30
68011;DHT22;54794;48.348;7.878;2022-11-15T07:31:07;14.40;71.40
68011;DHT22;54794;48.348;7.878;2022-11-15T07:33:36;14.30;71.30
68011;DHT22;54794;48.348;7.878;2022-11-15T07:36:05;14.40;71.40
68011;DHT22;54794;48.348;7.878;2022-11-15T07:38:34;14.40;71.30
68011;DHT22;54794;48.348;7.878;2022-11-15T07:41:08;14.40;71.30
68011;DHT22;54794;48.348;7.878;2022-11-15T07:43:35;14.40;71.30
68011;DHT22;54794;48.348;7.878;2022-11-15T07:46:06;14.40;71.40
68011;DHT22;54794;48.348;7.878;2022-11-15T07:48:37;14.40;71.40
68011;DHT22;54794;48.348;7.878;2022-11-15T07:51:12;14.40;71.40
68011;DHT22;54794;48.348;7.878;2022-11-15T07:53:43;14.40;71.40
68011;DHT22;54794;48.348;7.878;2022-11-15T07:56:11;14.50;71.50
68011;DHT22;54794;48.348;7.878;2022-11-15T07:58:38;14.50;71.40
68011;DHT22;54794;48.348;7.878;2022-11-15T08:01:07;14.50;71.50
68011;DHT22;54794;48.348;7.878;2022-11-15T08:03:37;14.50;71.50
68011;DHT22;54794;48.348;7.878;2022-11-15T08:06:04;14.50;71.50
68011;DHT22;54794;48.348;7.878;2022-11-15T08:08:31;14.50;71.50
68011;DHT22;54794;48.348;7.878;2022-11-15T08:10:58;14.50;71.50
68011;DHT22;54794;48.348;7.878;2022-11-15T08:13:25;14.50;71.60
68011;DHT22;54794;48.348;7.878;2022-11-15T08:15:56;14.50;71.60
68011;DHT22;54794;48.348;7.878;2022-11-15T08:18:24;14.50;71.40
68011;DHT22;54794;48.348;7.878;2022-11-15T08:20:51;14.50;71.40
68011;DHT22;54794;48.348;7.878;2022-11-15T08:23:18;14.50;71.50
68011;DHT22;54794;48.348;7.878;2022-11-15T08:25:44;14.50;71.60
68011;DHT22;54794;48.348;7.878;2022-11-15T08:28:11;14.60;71.60
68011;DHT22;54794;48.348;7.878;2022-11-15T08:30:41;14.60;72.20
68011;DHT22;54794;48.348;7.878;2022-11-15T08:33:12;14.50;71.70
68011;DHT22;54794;48.348;7.878;2022-11-15T08:35:41;14.60;71.80
68011;DHT22;54794;48.348;7.878;2022-11-15T08:38:09;14.60;71.90
68011;DHT22;54794;48.348;7.878;2022-11-15T08:40:37;14.60;71.90
68011;DHT22;54794;48.348;7.878;2022-11-15T08:43:04;14.60;71.90
68011;DHT22;54794;48.348;7.878;2022-11-15T08:45:32;14.60;71.80
68011;DHT22;54794;48.348;7.878;2022-11-15T08:48:02;14.70;71.80
68011;DHT22;54794;48.348;7.878;2022-11-15T08:50:29;14.70;71.90
68011;DHT22;54794;48.348;7.878;2022-11-15T08:52:57;14.70;71.90
68011;DHT22;54794;48.348;7.878;2022-11-15T08:55:24;14.70;71.90
68011;DHT22;54794;48.348;7.878;2022-11-15T08:57:51;14.70;71.90
68011;DHT22;54794;48.348;7.878;2022-11-15T09:00:20;14.80;71.90
68011;DHT22;54794;48.348;7.878;2022-11-15T09:02:47;14.80;71.90
68011;DHT22;54794;48.348;7.878;2022-11-15T09:05:17;14.80;71.80
68011;DHT22;54794;48.348;7.878;2022-11-15T09:07:45;14.80;71.80
68011;DHT22;54794;48.348;7.878;2022-11-15T09:10:12;14.90;72.00
68011;DHT22;54794;48.348;7.878;2022-11-15T09:12:42;14.90;72.00
68011;DHT22;54794;48.348;7.878;2022-11-15T09:15:09;14.90;72.10
68011;DHT22;54794;48.348;7.878;2022-11-15T09:17:36;14.90;72.10
68011;DHT22;54794;48.348;7.878;2022-11-15T09:20:03;14.90;72.00
68011;DHT22;54794;48.348;7.878;2022-11-15T09:22:31;14.90;72.00
68011;DHT22;54794;48.348;7.878;2022-11-15T09:25:00;15.00;72.10
68011;DHT22;54794;48.348;7.878;2022-11-15T09:27:28;15.00;72.10
68011;DHT22;54794;48.348;7.878;2022-11-15T09:29:56;15.00;72.10
68011;DHT22;54794;48.348;7.878;2022-11-15T09:32:23;15.00;72.20
68011;DHT22;54794;48.348;7.878;2022-11-15T09:34:50;15.00;72.20
68011;DHT22;54794;48.348;7.878;2022-11-15T09:37:20;15.10;72.20
68011;DHT22;54794;48.348;7.878;2022-11-15T09:39:47;15.10;72.30
68011;DHT22;54794;48.348;7.878;2022-11-15T09:48:04;15.10;72.40
68011;DHT22;54794;48.348;7.878;2022-11-15T09:50:51;15.20;72.40
68011;DHT22;54794;48.348;7.878;2022-11-15T09:56:41;15.20;72.40
68011;DHT22;54794;48.348;7.878;2022-11-15T09:59:39;15.30;72.50
68011;DHT22;54794;48.348;7.878;2022-11-15T10:02:43;15.30;72.70
68011;DHT22;54794;48.348;7.878;2022-11-15T10:05:24;15.30;72.70
68011;DHT22;54794;48.348;7.878;2022-11-15T10:10:48;15.40;72.40
68011;DHT22;54794;48.348;7.878;2022-11-15T10:13:48;15.40;72.40
68011;DHT22;54794;48.348;7.878;2022-11-15T10:19:28;15.50;72.30
68011;DHT22;54794;48.348;7.878;2022-11-15T10:25:00;15.60;72.50
68011;DHT22;54794;48.348;7.878;2022-11-15T10:27:30;15.60;72.40
68011;DHT22;54794;48.348;7.878;2022-11-15T10:29:56;15.60;72.40
68011;DHT22;54794;48.348;7.878;2022-11-15T10:32:23;15.60;72.50
68011;DHT22;54794;48.348;7.878;2022-11-15T10:34:51;15.60;72.60
68011;DHT22;54794;48.348;7.878;2022-11-15T10:37:29;15.70;72.50
68011;DHT22;54794;48.348;7.878;2022-11-15T10:40:05;15.70;72.50
68011;DHT22;54794;48.348;7.878;2022-11-15T10:42:33;15.70;72.40
68011;DHT22;54794;48.348;7.878;2022-11-15T10:45:00;15.80;72.30
68011;DHT22;54794;48.348;7.878;2022-11-15T10:47:30;15.80;72.30
68011;DHT22;54794;48.348;7.878;2022-11-15T10:50:28;15.80;72.30
68011;DHT22;54794;48.348;7.878;2022-11-15T10:53:01;15.80;72.50
68011;DHT22;54794;48.348;7.878;2022-11-15T10:55:33;15.80;72.30
68011;DHT22;54794;48.348;7.878;2022-11-15T10:58:19;15.80;72.40
68011;DHT22;54794;48.348;7.878;2022-11-15T11:01:22;15.90;72.60
68011;DHT22;54794;48.348;7.878;2022-11-15T11:04:08;15.90;72.60
68011;DHT22;54794;48.348;7.878;2022-11-15T11:09:37;15.90;72.50
68011;DHT22;54794;48.348;7.878;2022-11-15T11:12:10;16.00;72.40
68011;DHT22;54794;48.348;7.878;2022-11-15T11:14:42;16.00;72.30
68011;DHT22;54794;48.348;7.878;2022-11-15T11:17:31;16.00;72.30
68011;DHT22;54794;48.348;7.878;2022-11-15T11:20:31;16.00;72.30
68011;DHT22;54794;48.348;7.878;2022-11-15T11:37:50;16.20;72.50
68011;DHT22;54794;48.348;7.878;2022-11-15T11:40:44;16.20;72.40
68011;DHT22;54794;48.348;7.878;2022-11-15T11:53:05;16.40;72.70
68011;DHT22;54794;48.348;7.878;2022-11-15T11:56:03;16.40;72.70
68011;DHT22;54794;48.348;7.878;2022-11-15T11:58:43;16.50;72.70
68011;DHT22;54794;48.348;7.878;2022-11-15T12:08:29;16.60;72.90
68011;DHT22;54794;48.348;7.878;2022-11-15T12:11:23;16.70;72.70
68011;DHT22;54794;48.348;7.878;2022-11-15T12:17:19;16.80;72.80
68011;DHT22;54794;48.348;7.878;2022-11-15T12:19:49;16.80;72.70
68011;DHT22;54794;48.348;7.878;2022-11-15T12:22:19;16.90;72.70
68011;DHT22;54794;48.348;7.878;2022-11-15T12:31:05;17.00;72.70
68011;DHT22;54794;48.348;7.878;2022-11-15T12:33:49;17.00;72.60
68011;DHT22;54794;48.348;7.878;2022-11-15T12:39:01;17.10;72.50
68011;DHT22;54794;48.348;7.878;2022-11-15T12:41:34;17.10;72.30
68011;DHT22;54794;48.348;7.878;2022-11-15T12:44:04;17.10;72.30
68011;DHT22;54794;48.348;7.878;2022-11-15T13:02:35;17.30;71.90
68011;DHT22;54794;48.348;7.878;2022-11-15T13:17:50;17.30;71.60
68011;DHT22;54794;48.348;7.878;2022-11-15T13:20:28;17.30;71.60
68011;DHT22;54794;48.348;7.878;2022-11-15T13:28:18;17.30;71.50
68011;DHT22;54794;48.348;7.878;2022-11-15T13:30:58;17.30;71.60
68011;DHT22;54794;48.348;7.878;2022-11-15T13:33:40;17.30;71.30
68011;DHT22;54794;48.348;7.878;2022-11-15T13:36:35;17.30;71.40
68011;DHT22;54794;48.348;7.878;2022-11-15T13:39:14;17.30;71.20
68011;DHT22;54794;48.348;7.878;2022-11-15T13:41:58;17.30;71.20
68011;DHT22;54794;48.348;7.878;2022-11-15T13:44:39;17.20;71.10
68011;DHT22;54794;48.348;7.878;2022-11-15T13:47:18;17.20;71.20
68011;DHT22;54794;48.348;7.878;2022-11-15T13:49:47;17.10;71.20
68011;DHT22;54794;48.348;7.878;2022-11-15T13:52:32;17.20;71.20
68011;DHT22;54794;48.348;7.878;2022-11-15T13:55:39;17.10;71.10
68011;DHT22;54794;48.348;7.878;2022-11-15T13:58:09;17.10;70.80
68011;DHT22;54794;48.348;7.878;2022-11-15T14:00:44;17.10;71.00
68011;DHT22;54794;48.348;7.878;2022-11-15T14:06:16;17.00;70.80
68011;DHT22;54794;48.348;7.878;2022-11-15T14:11:33;16.90;70.90
68011;DHT22;54794;48.348;7.878;2022-11-15T14:14:13;16.90;71.00
68011;DHT22;54794;48.348;7.878;2022-11-15T14:16:47;16.90;71.00
68011;DHT22;54794;48.348;7.878;2022-11-15T14:22:16;16.80;71.10
68011;DHT22;54794;48.348;7.878;2022-11-15T14:25:18;16.80;71.20
68011;DHT22;54794;48.348;7.878;2022-11-15T14:28:14;16.80;71.00
68011;DHT22;54794;48.348;7.878;2022-11-15T14:30:57;16.80;71.10
68011;DHT22;54794;48.348;7.878;2022-11-15T14:33:28;16.80;71.00
68011;DHT22;54794;48.348;7.878;2022-11-15T14:36:17;16.80;71.00
68011;DHT22;54794;48.348;7.878;2022-11-15T14:38:46;16.70;70.80
68011;DHT22;54794;48.348;7.878;2022-11-15T14:41:22;16.70;70.90
68011;DHT22;54794;48.348;7.878;2022-11-15T14:43:51;16.70;70.90
68011;DHT22;54794;48.348;7.878;2022-11-15T14:46:19;16.70;71.00
68011;DHT22;54794;48.348;7.878;2022-11-15T14:48:46;16.70;71.10
68011;DHT22;54794;48.348;7.878;2022-11-15T14:51:14;16.70;71.20
68011;DHT22;54794;48.348;7.878;2022-11-15T14:53:44;16.70;71.20
68011;DHT22;54794;48.348;7.878;2022-11-15T14:56:13;16.70;71.20
68011;DHT22;54794;48.348;7.878;2022-11-15T14:58:40;16.70;71.20
68011;DHT22;54794;48.348;7.878;2022-11-15T15:01:16;16.70;71.20
68011;DHT22;54794;48.348;7.878;2022-11-15T15:03:46;16.70;71.10
68011;DHT22;54794;48.348;7.878;2022-11-15T15:06:13;16.60;71.00
68011;DHT22;54794;48.348;7.878;2022-11-15T15:08:44;16.70;71.00
68011;DHT22;54794;48.348;7.878;2022-11-15T15:11:21;16.70;71.00
68011;DHT22;54794;48.348;7.878;2022-11-15T15:13:50;16.60;70.90
68011;DHT22;54794;48.348;7.878;2022-11-15T15:16:19;16.60;70.90
68011;DHT22;54794;48.348;7.878;2022-11-15T15:18:46;16.60;71.00
68011;DHT22;54794;48.348;7.878;2022-11-15T15:21:24;16.60;71.00
68011;DHT22;54794;48.348;7.878;2022-11-15T15:24:01;16.60;70.80
68011;DHT22;54794;48.348;7.878;2022-11-15T15:26:28;16.50;70.80
68011;DHT22;54794;48.348;7.878;2022-11-15T15:28:55;16.50;70.60
68011;DHT22;54794;48.348;7.878;2022-11-15T15:31:22;16.40;70.70
68011;DHT22;54794;48.348;7.878;2022-11-15T15:33:49;16.40;70.80
68011;DHT22;54794;48.348;7.878;2022-11-15T15:36:18;16.40;70.80
68011;DHT22;54794;48.348;7.878;2022-11-15T15:38:45;16.40;70.90
68011;DHT22;54794;48.348;7.878;2022-11-15T15:41:16;16.30;70.80
68011;DHT22;54794;48.348;7.878;2022-11-15T15:43:43;16.30;70.80
68011;DHT22;54794;48.348;7.878;2022-11-15T15:46:11;16.30;70.90
68011;DHT22;54794;48.348;7.878;2022-11-15T15:48:40;16.30;70.90
68011;DHT22;54794;48.348;7.878;2022-11-15T15:51:07;16.30;70.90
68011;DHT22;54794;48.348;7.878;2022-11-15T15:53:44;16.30;70.80
68011;DHT22;54794;48.348;7.878;2022-11-15T15:56:11;16.20;70.80
68011;DHT22;54794;48.348;7.878;2022-11-15T15:58:38;16.20;70.90
68011;DHT22;54794;48.348;7.878;2022-11-15T16:01:05;16.10;70.90
68011;DHT22;54794;48.348;7.878;2022-11-15T16:03:31;16.10;70.90
68011;DHT22;54794;48.348;7.878;2022-11-15T16:05:58;16.10;71.00
68011;DHT22;54794;48.348;7.878;2022-11-15T16:08:26;16.10;71.00
68011;DHT22;54794;48.348;7.878;2022-11-15T16:11:03;16.10;71.10
68011;DHT22;54794;48.348;7.878;2022-11-15T16:13:32;16.10;71.10
68011;DHT22;54794;48.348;7.878;2022-11-15T16:16:00;16.00;71.10
68011;DHT22;54794;48.348;7.878;2022-11-15T16:18:26;16.00;71.20
68011;DHT22;54794;48.348;7.878;2022-11-15T16:20:53;16.00;71.20
68011;DHT22;54794;48.348;7.878;2022-11-15T16:23:23;16.00;71.20
68011;DHT22;54794;48.348;7.878;2022-11-15T16:25:55;16.00;71.20
68011;DHT22;54794;48.348;7.878;2022-11-15T16:31:00;16.00;71.30
68011;DHT22;54794;48.348;7.878;2022-11-15T16:33:30;15.90;71.20
68011;DHT22;54794;48.348;7.878;2022-11-15T16:35:58;16.00;71.30
68011;DHT22;54794;48.348;7.878;2022-11-15T16:38:25;15.90;71.30
68011;DHT22;54794;48.348;7.878;2022-11-15T16:40:52;15.90;71.30
68011;DHT22;54794;48.348;7.878;2022-11-15T16:43:19;15.90;71.30
68011;DHT22;54794;48.348;7.878;2022-11-15T16:45:46;15.90;71.30
68011;DHT22;54794;48.348;7.878;2022-11-15T16:48:27;15.90;71.30
68011;DHT22;54794;48.348;7.878;2022-11-15T16:50:55;15.90;71.70
68011;DHT22;54794;48.348;7.878;2022-11-15T16:53:24;15.80;71.30
68011;DHT22;54794;48.348;7.878;2022-11-15T16:55:53;15.90;71.40
68011;DHT22;54794;48.348;7.878;2022-11-15T16:58:21;15.80;71.40
68011;DHT22;54794;48.348;7.878;2022-11-15T17:00:52;15.90;71.50
68011;DHT22;54794;48.348;7.878;2022-11-15T17:03:21;15.80;71.40
68011;DHT22;54794;48.348;7.878;2022-11-15T17:05:49;15.80;71.50
68011;DHT22;54794;48.348;7.878;2022-11-15T17:08:16;15.80;71.50
68011;DHT22;54794;48.348;7.878;2022-11-15T17:10:46;15.80;71.50
68011;DHT22;54794;48.348;7.878;2022-11-15T17:13:13;15.80;71.50
68011;DHT22;54794;48.348;7.878;2022-11-15T17:15:40;15.80;71.50
68011;DHT22;54794;48.348;7.878;2022-11-15T17:18:10;15.80;71.40
68011;DHT22;54794;48.348;7.878;2022-11-15T17:20:39;15.80;71.50
68011;DHT22;54794;48.348;7.878;2022-11-15T17:23:12;15.70;71.50
68011;DHT22;54794;48.348;7.878;2022-11-15T17:25:40;15.70;71.60
68011;DHT22;54794;48.348;7.878;2022-11-15T17:28:07;15.70;71.60
68011;DHT22;54794;48.348;7.878;2022-11-15T17:30:34;15.60;71.60
68011;DHT22;54794;48.348;7.878;2022-11-15T17:33:01;15.70;71.70
68011;DHT22;54794;48.348;7.878;2022-11-15T17:35:28;15.70;71.70
68011;DHT22;54794;48.348;7.878;2022-11-15T17:37:54;15.60;71.60
68011;DHT22;54794;48.348;7.878;2022-11-15T17:40:21;15.70;71.70
68011;DHT22;54794;48.348;7.878;2022-11-15T17:42:48;15.60;71.70
68011;DHT22;54794;48.348;7.878;2022-11-15T17:45:15;15.70;71.70
68011;DHT22;54794;48.348;7.878;2022-11-15T17:47:42;15.60;71.70
68011;DHT22;54794;48.348;7.878;2022-11-15T17:50:09;15.60;71.70
68011;DHT22;54794;48.348;7.878;2022-11-15T17:52:37;15.60;71.70
68011;DHT22;54794;48.348;7.878;2022-11-15T17:55:04;15.60;71.70
68011;DHT22;54794;48.348;7.878;2022-11-15T17:57:31;15.60;71.80
68011;DHT22;54794;48.348;7.878;2022-11-15T17:59:58;15.60;71.80
68011;DHT22;54794;48.348;7.878;2022-11-15T18:02:25;15.60;71.80
68011;DHT22;54794;48.348;7.878;2022-11-15T18:04:52;15.60;71.80
68011;DHT22;54794;48.348;7.878;2022-11-15T18:07:18;15.50;71.80
68011;DHT22;54794;48.348;7.878;2022-11-15T18:09:45;15.50;71.80
68011;DHT22;54794;48.348;7.878;2022-11-15T18:12:12;15.50;71.80
68011;DHT22;54794;48.348;7.878;2022-11-15T18:14:39;15.50;71.90
68011;DHT22;54794;48.348;7.878;2022-11-15T18:17:06;15.50;71.90
68011;DHT22;54794;48.348;7.878;2022-11-15T18:19:33;15.50;71.90
68011;DHT22;54794;48.348;7.878;2022-11-15T18:22:00;15.50;71.90
68011;DHT22;54794;48.348;7.878;2022-11-15T18:24:31;15.50;72.00
68011;DHT22;54794;48.348;7.878;2022-11-15T18:27:01;15.50;72.50
68011;DHT22;54794;48.348;7.878;2022-11-15T18:29:30;15.50;72.00